<?xml version="1.0" encoding="UTF-8" standalone="no" ?>
<gpx xmlns="http://www.topografix.com/GPX/1/1" xmlns:xsi="http://www.w3.org/2001/XMLSchema-instance" xsi:schemaLocation="http://www.topografix.com/GPX/1/1 http://www.topografix.com/GPX/1/1/gpx.xsd" version="1.1" creator="VisuGPX - https://www.visugpx.com">
  <metadata>
    <name>Entre Joganville et Montebourg</name>
  </metadata>
  <wpt lat="49.46919" lon="-1.34905">
    <ele>16</ele>
    <name><![CDATA[Parking de la mairie de Joganville]]></name>
  </wpt>
  <wpt lat="49.47174" lon="-1.35327">
    <ele>20</ele>
    <name><![CDATA[À gauche]]></name>
  </wpt>
  <wpt lat="49.47098" lon="-1.35451">
    <ele>18</ele>
    <name><![CDATA[Puits dans un mur]]></name>
  </wpt>
  <wpt lat="49.47829" lon="-1.36304">
    <ele>29</ele>
    <name><![CDATA[Croisement, en face]]></name>
  </wpt>
  <wpt lat="49.4849" lon="-1.3755">
    <ele>28</ele>
    <name><![CDATA[Abandonner le GR et à droite]]></name>
  </wpt>
  <wpt lat="49.48471" lon="-1.35026">
    <ele>25</ele>
    <name><![CDATA[Carrefour route, en face]]></name>
  </wpt>
  <wpt lat="49.48514" lon="-1.34765">
    <ele>26</ele>
    <name><![CDATA[Tourner à droite]]></name>
  </wpt>
  <wpt lat="49.48111" lon="-1.34554">
    <ele>18</ele>
    <name><![CDATA[Abandonner le GR et tout droit]]></name>
  </wpt>
  <wpt lat="49.47825" lon="-1.34112">
    <ele>20</ele>
    <name><![CDATA[À droite]]></name>
  </wpt>
  <wpt lat="49.46917" lon="-1.34905">
    <ele>16</ele>
    <name><![CDATA[Parking de la mairie de Joganville]]></name>
  </wpt>
  <trk>
    <name><![CDATA[Entre Joganville et Montebourg]]></name>
    <trkseg>
      <trkpt lat="49.46919" lon="-1.34905">
        <ele>16</ele>
        <time>2017-10-15T10:06:53+02:00</time>
      </trkpt>
      <trkpt lat="49.46953" lon="-1.34877">
        <ele>18</ele>
        <time>2021-05-09T09:58:32+02:00</time>
      </trkpt>
      <trkpt lat="49.46992" lon="-1.34858">
        <ele>19</ele>
        <time>2021-05-09T09:58:37+02:00</time>
      </trkpt>
      <trkpt lat="49.47016" lon="-1.34912">
        <ele>17</ele>
        <time>2021-05-09T09:58:42+02:00</time>
      </trkpt>
      <trkpt lat="49.47046" lon="-1.34948">
        <ele>15</ele>
        <time>2021-05-09T09:58:47+02:00</time>
      </trkpt>
      <trkpt lat="49.47077" lon="-1.3501">
        <ele>13</ele>
        <time>2017-10-15T10:07:29+02:00</time>
      </trkpt>
      <trkpt lat="49.47099" lon="-1.35065">
        <ele>13</ele>
        <time>2017-10-15T10:08:10+02:00</time>
      </trkpt>
      <trkpt lat="49.47129" lon="-1.3516">
        <ele>16</ele>
        <time>2017-10-15T10:09:04+02:00</time>
      </trkpt>
      <trkpt lat="49.47174" lon="-1.35327">
        <ele>20</ele>
        <time>2017-10-15T10:10:11+02:00</time>
      </trkpt>
      <trkpt lat="49.4714" lon="-1.35379">
        <ele>19</ele>
        <time>2017-10-15T10:11:43+02:00</time>
      </trkpt>
      <trkpt lat="49.47103" lon="-1.35418">
        <ele>17</ele>
        <time>2021-05-09T09:59:17+02:00</time>
      </trkpt>
      <trkpt lat="49.47098" lon="-1.35451">
        <ele>18</ele>
        <time>2017-10-15T10:12:24+02:00</time>
      </trkpt>
      <trkpt lat="49.47106" lon="-1.35484">
        <ele>18</ele>
        <time>2017-10-15T10:13:15+02:00</time>
      </trkpt>
      <trkpt lat="49.47148" lon="-1.35569">
        <ele>19</ele>
        <time>2017-10-15T10:14:12+02:00</time>
      </trkpt>
      <trkpt lat="49.47194" lon="-1.35676">
        <ele>19</ele>
        <time>2017-10-15T10:15:06+02:00</time>
      </trkpt>
      <trkpt lat="49.47246" lon="-1.35761">
        <ele>21</ele>
        <time>2017-10-15T10:16:37+02:00</time>
      </trkpt>
      <trkpt lat="49.47268" lon="-1.35784">
        <ele>21</ele>
        <time>2017-10-15T10:17:01+02:00</time>
      </trkpt>
      <trkpt lat="49.47301" lon="-1.35835">
        <ele>22</ele>
        <time>2017-10-15T10:17:36+02:00</time>
      </trkpt>
      <trkpt lat="49.47352" lon="-1.3591">
        <ele>23</ele>
        <time>2017-10-15T10:18:51+02:00</time>
      </trkpt>
      <trkpt lat="49.47407" lon="-1.35972">
        <ele>25</ele>
        <time>2017-10-15T10:19:42+02:00</time>
      </trkpt>
      <trkpt lat="49.47422" lon="-1.35998">
        <ele>25</ele>
        <time>2017-10-15T10:20:12+02:00</time>
      </trkpt>
      <trkpt lat="49.47463" lon="-1.36034">
        <ele>25</ele>
        <time>2017-10-15T10:20:43+02:00</time>
      </trkpt>
      <trkpt lat="49.47503" lon="-1.3607">
        <ele>25</ele>
        <time>2017-10-15T10:21:17+02:00</time>
      </trkpt>
      <trkpt lat="49.47542" lon="-1.36105">
        <ele>25</ele>
        <time>2017-10-15T10:21:46+02:00</time>
      </trkpt>
      <trkpt lat="49.47578" lon="-1.36149">
        <ele>26</ele>
        <time>2017-10-15T10:22:20+02:00</time>
      </trkpt>
      <trkpt lat="49.47614" lon="-1.36195">
        <ele>26</ele>
        <time>2017-10-15T10:22:56+02:00</time>
      </trkpt>
      <trkpt lat="49.47647" lon="-1.36245">
        <ele>27</ele>
        <time>2017-10-15T10:23:30+02:00</time>
      </trkpt>
      <trkpt lat="49.47683" lon="-1.36291">
        <ele>28</ele>
        <time>2017-10-15T10:24:02+02:00</time>
      </trkpt>
      <trkpt lat="49.47702" lon="-1.36329">
        <ele>27</ele>
        <time>2017-10-15T10:24:18+02:00</time>
      </trkpt>
      <trkpt lat="49.47744" lon="-1.36329">
        <ele>28</ele>
        <time>2017-10-15T10:24:53+02:00</time>
      </trkpt>
      <trkpt lat="49.47829" lon="-1.36304">
        <ele>29</ele>
        <time>2017-10-15T10:25:31+02:00</time>
      </trkpt>
      <trkpt lat="49.4786" lon="-1.36312">
        <ele>28</ele>
        <time>2017-10-15T10:26:44+02:00</time>
      </trkpt>
      <trkpt lat="49.47903" lon="-1.36337">
        <ele>26</ele>
        <time>2017-10-15T10:27:22+02:00</time>
      </trkpt>
      <trkpt lat="49.4796" lon="-1.36382">
        <ele>24</ele>
        <time>2021-05-09T10:01:12+02:00</time>
      </trkpt>
      <trkpt lat="49.47994" lon="-1.36389">
        <ele>23</ele>
        <time>2021-05-09T10:01:17+02:00</time>
      </trkpt>
      <trkpt lat="49.4803" lon="-1.36419">
        <ele>24</ele>
        <time>2017-10-15T10:29:12+02:00</time>
      </trkpt>
      <trkpt lat="49.4807" lon="-1.36454">
        <ele>26</ele>
        <time>2017-10-15T10:29:48+02:00</time>
      </trkpt>
      <trkpt lat="49.48106" lon="-1.36498">
        <ele>27</ele>
        <time>2017-10-15T10:30:31+02:00</time>
      </trkpt>
      <trkpt lat="49.48138" lon="-1.36547">
        <ele>27</ele>
        <time>2017-10-15T10:31:08+02:00</time>
      </trkpt>
      <trkpt lat="49.48175" lon="-1.36591">
        <ele>27</ele>
        <time>2017-10-15T10:31:52+02:00</time>
      </trkpt>
      <trkpt lat="49.48228" lon="-1.36657">
        <ele>27</ele>
        <time>2017-10-15T10:32:42+02:00</time>
      </trkpt>
      <trkpt lat="49.48247" lon="-1.36678">
        <ele>28</ele>
        <time>2017-10-15T10:32:57+02:00</time>
      </trkpt>
      <trkpt lat="49.48277" lon="-1.36732">
        <ele>29</ele>
        <time>2017-10-15T10:33:34+02:00</time>
      </trkpt>
      <trkpt lat="49.48312" lon="-1.36777">
        <ele>30</ele>
        <time>2017-10-15T10:34:07+02:00</time>
      </trkpt>
      <trkpt lat="49.48347" lon="-1.36825">
        <ele>30</ele>
        <time>2017-10-15T10:34:44+02:00</time>
      </trkpt>
      <trkpt lat="49.48367" lon="-1.36861">
        <ele>31</ele>
        <time>2021-05-09T10:02:12+02:00</time>
      </trkpt>
      <trkpt lat="49.48331" lon="-1.36928">
        <ele>29</ele>
        <time>2021-05-09T10:02:17+02:00</time>
      </trkpt>
      <trkpt lat="49.48352" lon="-1.36987">
        <ele>31</ele>
        <time>2017-10-15T10:36:30+02:00</time>
      </trkpt>
      <trkpt lat="49.48377" lon="-1.37089">
        <ele>32</ele>
        <time>2017-10-15T10:37:25+02:00</time>
      </trkpt>
      <trkpt lat="49.48403" lon="-1.37188">
        <ele>32</ele>
        <time>2017-10-15T10:38:17+02:00</time>
      </trkpt>
      <trkpt lat="49.48422" lon="-1.37251">
        <ele>33</ele>
        <time>2017-10-15T10:38:50+02:00</time>
      </trkpt>
      <trkpt lat="49.48442" lon="-1.37315">
        <ele>33</ele>
        <time>2017-10-15T10:39:23+02:00</time>
      </trkpt>
      <trkpt lat="49.48464" lon="-1.37415">
        <ele>32</ele>
        <time>2017-10-15T10:40:21+02:00</time>
      </trkpt>
      <trkpt lat="49.4849" lon="-1.3755">
        <ele>28</ele>
        <time>2017-10-15T10:41:13+02:00</time>
      </trkpt>
      <trkpt lat="49.48507" lon="-1.37457">
        <ele>31</ele>
        <time>2021-05-09T10:02:57+02:00</time>
      </trkpt>
      <trkpt lat="49.4853" lon="-1.37427">
        <ele>32</ele>
        <time>2021-05-09T10:03:02+02:00</time>
      </trkpt>
      <trkpt lat="49.48556" lon="-1.37412">
        <ele>32</ele>
        <time>2017-10-15T10:43:59+02:00</time>
      </trkpt>
      <trkpt lat="49.48612" lon="-1.37369">
        <ele>33</ele>
        <time>2017-10-15T10:44:43+02:00</time>
      </trkpt>
      <trkpt lat="49.48636" lon="-1.37364">
        <ele>33</ele>
        <time>2021-05-09T10:03:17+02:00</time>
      </trkpt>
      <trkpt lat="49.48676" lon="-1.37331">
        <ele>34</ele>
        <time>2021-05-09T10:03:22+02:00</time>
      </trkpt>
      <trkpt lat="49.4865" lon="-1.37268">
        <ele>37</ele>
        <time>2017-10-15T10:46:08+02:00</time>
      </trkpt>
      <trkpt lat="49.4861" lon="-1.37174">
        <ele>38</ele>
        <time>2017-10-15T10:47:08+02:00</time>
      </trkpt>
      <trkpt lat="49.48589" lon="-1.37131">
        <ele>38</ele>
        <time>2017-10-15T10:47:33+02:00</time>
      </trkpt>
      <trkpt lat="49.48619" lon="-1.37038">
        <ele>39</ele>
        <time>2017-10-15T10:49:02+02:00</time>
      </trkpt>
      <trkpt lat="49.48605" lon="-1.36964">
        <ele>40</ele>
        <time>2017-10-15T10:49:43+02:00</time>
      </trkpt>
      <trkpt lat="49.48609" lon="-1.36893">
        <ele>41</ele>
        <time>2017-10-15T10:50:12+02:00</time>
      </trkpt>
      <trkpt lat="49.4861" lon="-1.36783">
        <ele>41</ele>
        <time>2017-10-15T10:51:13+02:00</time>
      </trkpt>
      <trkpt lat="49.48599" lon="-1.36711">
        <ele>40</ele>
        <time>2017-10-15T10:51:51+02:00</time>
      </trkpt>
      <trkpt lat="49.48577" lon="-1.36647">
        <ele>40</ele>
        <time>2017-10-15T10:52:25+02:00</time>
      </trkpt>
      <trkpt lat="49.48552" lon="-1.36583">
        <ele>39</ele>
        <time>2017-10-15T10:53:01+02:00</time>
      </trkpt>
      <trkpt lat="49.4854" lon="-1.36551">
        <ele>38</ele>
        <time>2017-10-15T10:53:19+02:00</time>
      </trkpt>
      <trkpt lat="49.4853" lon="-1.3652">
        <ele>38</ele>
        <time>2017-10-15T10:53:35+02:00</time>
      </trkpt>
      <trkpt lat="49.48519" lon="-1.36452">
        <ele>36</ele>
        <time>2017-10-15T10:54:06+02:00</time>
      </trkpt>
      <trkpt lat="49.48517" lon="-1.36382">
        <ele>35</ele>
        <time>2017-10-15T10:54:43+02:00</time>
      </trkpt>
      <trkpt lat="49.48514" lon="-1.3631">
        <ele>34</ele>
        <time>2017-10-15T10:55:30+02:00</time>
      </trkpt>
      <trkpt lat="49.48516" lon="-1.36239">
        <ele>33</ele>
        <time>2017-10-15T10:56:06+02:00</time>
      </trkpt>
      <trkpt lat="49.48512" lon="-1.36166">
        <ele>33</ele>
        <time>2017-10-15T10:56:49+02:00</time>
      </trkpt>
      <trkpt lat="49.48508" lon="-1.36097">
        <ele>33</ele>
        <time>2017-10-15T10:57:17+02:00</time>
      </trkpt>
      <trkpt lat="49.48507" lon="-1.36053">
        <ele>34</ele>
        <time>2021-05-09T10:04:57+02:00</time>
      </trkpt>
      <trkpt lat="49.48506" lon="-1.35989">
        <ele>35</ele>
        <time>2017-10-15T10:58:12+02:00</time>
      </trkpt>
      <trkpt lat="49.48507" lon="-1.35953">
        <ele>35</ele>
        <time>2017-10-15T10:58:29+02:00</time>
      </trkpt>
      <trkpt lat="49.48499" lon="-1.35879">
        <ele>34</ele>
        <time>2017-10-15T10:59:03+02:00</time>
      </trkpt>
      <trkpt lat="49.48493" lon="-1.35808">
        <ele>33</ele>
        <time>2017-10-15T10:59:40+02:00</time>
      </trkpt>
      <trkpt lat="49.48483" lon="-1.35739">
        <ele>33</ele>
        <time>2017-10-15T11:00:20+02:00</time>
      </trkpt>
      <trkpt lat="49.48481" lon="-1.35629">
        <ele>34</ele>
        <time>2017-10-15T11:01:13+02:00</time>
      </trkpt>
      <trkpt lat="49.48476" lon="-1.35557">
        <ele>32</ele>
        <time>2017-10-15T11:01:51+02:00</time>
      </trkpt>
      <trkpt lat="49.48471" lon="-1.35484">
        <ele>30</ele>
        <time>2017-10-15T11:02:27+02:00</time>
      </trkpt>
      <trkpt lat="49.48464" lon="-1.35412">
        <ele>29</ele>
        <time>2017-10-15T11:03:03+02:00</time>
      </trkpt>
      <trkpt lat="49.48459" lon="-1.35337">
        <ele>29</ele>
        <time>2017-10-15T11:03:39+02:00</time>
      </trkpt>
      <trkpt lat="49.48432" lon="-1.35199">
        <ele>26</ele>
        <time>2017-10-15T11:04:51+02:00</time>
      </trkpt>
      <trkpt lat="49.48435" lon="-1.35143">
        <ele>25</ele>
        <time>2021-05-09T10:05:57+02:00</time>
      </trkpt>
      <trkpt lat="49.4845" lon="-1.35079">
        <ele>24</ele>
        <time>2021-05-09T10:06:02+02:00</time>
      </trkpt>
      <trkpt lat="49.48471" lon="-1.35026">
        <ele>25</ele>
        <time>2021-05-09T10:06:07+02:00</time>
      </trkpt>
      <trkpt lat="49.48478" lon="-1.34982">
        <ele>25</ele>
        <time>2021-05-09T10:06:12+02:00</time>
      </trkpt>
      <trkpt lat="49.4849" lon="-1.34953">
        <ele>26</ele>
        <time>2017-10-15T11:06:53+02:00</time>
      </trkpt>
      <trkpt lat="49.48505" lon="-1.34882">
        <ele>26</ele>
        <time>2017-10-15T11:07:29+02:00</time>
      </trkpt>
      <trkpt lat="49.48514" lon="-1.34838">
        <ele>26</ele>
        <time>2021-05-09T10:06:27+02:00</time>
      </trkpt>
      <trkpt lat="49.48514" lon="-1.34765">
        <ele>26</ele>
        <time>2017-10-15T11:08:09+02:00</time>
      </trkpt>
      <trkpt lat="49.48484" lon="-1.34762">
        <ele>24</ele>
        <time>2021-05-09T10:06:37+02:00</time>
      </trkpt>
      <trkpt lat="49.48441" lon="-1.34787">
        <ele>23</ele>
        <time>2021-05-09T10:06:42+02:00</time>
      </trkpt>
      <trkpt lat="49.48398" lon="-1.34811">
        <ele>22</ele>
        <time>2017-10-15T11:10:08+02:00</time>
      </trkpt>
      <trkpt lat="49.48354" lon="-1.3483">
        <ele>21</ele>
        <time>2017-10-15T11:10:38+02:00</time>
      </trkpt>
      <trkpt lat="49.48303" lon="-1.34847">
        <ele>19</ele>
        <time>2017-10-15T11:11:51+02:00</time>
      </trkpt>
      <trkpt lat="49.48257" lon="-1.3484">
        <ele>17</ele>
        <time>2017-10-15T11:12:25+02:00</time>
      </trkpt>
      <trkpt lat="49.48216" lon="-1.34803">
        <ele>19</ele>
        <time>2017-10-15T11:12:57+02:00</time>
      </trkpt>
      <trkpt lat="49.482" lon="-1.34699">
        <ele>19</ele>
        <time>2017-10-15T11:13:49+02:00</time>
      </trkpt>
      <trkpt lat="49.48183" lon="-1.34632">
        <ele>17</ele>
        <time>2017-10-15T11:14:21+02:00</time>
      </trkpt>
      <trkpt lat="49.48125" lon="-1.34582">
        <ele>17</ele>
        <time>2021-05-09T10:07:22+02:00</time>
      </trkpt>
      <trkpt lat="49.48111" lon="-1.34554">
        <ele>18</ele>
        <time>2021-05-09T10:07:27+02:00</time>
      </trkpt>
      <trkpt lat="49.48061" lon="-1.34567">
        <ele>18</ele>
        <time>2017-10-15T11:17:11+02:00</time>
      </trkpt>
      <trkpt lat="49.48015" lon="-1.34575">
        <ele>18</ele>
        <time>2017-10-15T11:17:45+02:00</time>
      </trkpt>
      <trkpt lat="49.47944" lon="-1.34577">
        <ele>18</ele>
        <time>2017-10-15T11:18:35+02:00</time>
      </trkpt>
      <trkpt lat="49.47881" lon="-1.34567">
        <ele>18</ele>
        <time>2021-05-09T10:07:47+02:00</time>
      </trkpt>
      <trkpt lat="49.47849" lon="-1.34577">
        <ele>18</ele>
        <time>2017-10-15T11:19:45+02:00</time>
      </trkpt>
      <trkpt lat="49.47817" lon="-1.34564">
        <ele>18</ele>
        <time>2021-05-09T10:07:57+02:00</time>
      </trkpt>
      <trkpt lat="49.47814" lon="-1.34539">
        <ele>18</ele>
        <time>2017-10-15T11:20:21+02:00</time>
      </trkpt>
      <trkpt lat="49.47816" lon="-1.34465">
        <ele>19</ele>
        <time>2017-10-15T11:20:57+02:00</time>
      </trkpt>
      <trkpt lat="49.47825" lon="-1.34395">
        <ele>20</ele>
        <time>2017-10-15T11:21:30+02:00</time>
      </trkpt>
      <trkpt lat="49.47841" lon="-1.34328">
        <ele>21</ele>
        <time>2017-10-15T11:22:05+02:00</time>
      </trkpt>
      <trkpt lat="49.47855" lon="-1.34261">
        <ele>20</ele>
        <time>2017-10-15T11:22:34+02:00</time>
      </trkpt>
      <trkpt lat="49.4787" lon="-1.34191">
        <ele>19</ele>
        <time>2017-10-15T11:23:17+02:00</time>
      </trkpt>
      <trkpt lat="49.47868" lon="-1.34158">
        <ele>19</ele>
        <time>2021-05-09T10:08:32+02:00</time>
      </trkpt>
      <trkpt lat="49.47825" lon="-1.34112">
        <ele>20</ele>
        <time>2021-05-09T10:08:37+02:00</time>
      </trkpt>
      <trkpt lat="49.47789" lon="-1.34129">
        <ele>21</ele>
        <time>2017-10-15T11:24:37+02:00</time>
      </trkpt>
      <trkpt lat="49.47687" lon="-1.34228">
        <ele>19</ele>
        <time>2017-10-15T11:26:15+02:00</time>
      </trkpt>
      <trkpt lat="49.47625" lon="-1.34274">
        <ele>20</ele>
        <time>2017-10-15T11:27:11+02:00</time>
      </trkpt>
      <trkpt lat="49.47547" lon="-1.3435">
        <ele>22</ele>
        <time>2017-10-15T11:28:23+02:00</time>
      </trkpt>
      <trkpt lat="49.47485" lon="-1.34395">
        <ele>22</ele>
        <time>2017-10-15T11:29:21+02:00</time>
      </trkpt>
      <trkpt lat="49.47439" lon="-1.34396">
        <ele>23</ele>
        <time>2017-10-15T11:29:57+02:00</time>
      </trkpt>
      <trkpt lat="49.47363" lon="-1.34364">
        <ele>26</ele>
        <time>2021-05-09T10:09:12+02:00</time>
      </trkpt>
      <trkpt lat="49.47318" lon="-1.34365">
        <ele>27</ele>
        <time>2021-05-09T10:09:17+02:00</time>
      </trkpt>
      <trkpt lat="49.47251" lon="-1.34419">
        <ele>26</ele>
        <time>2017-10-15T11:32:19+02:00</time>
      </trkpt>
      <trkpt lat="49.47214" lon="-1.34418">
        <ele>26</ele>
        <time>2021-05-09T10:09:27+02:00</time>
      </trkpt>
      <trkpt lat="49.47173" lon="-1.34463">
        <ele>25</ele>
        <time>2017-10-15T11:33:39+02:00</time>
      </trkpt>
      <trkpt lat="49.47149" lon="-1.34512">
        <ele>25</ele>
        <time>2021-05-09T10:09:37+02:00</time>
      </trkpt>
      <trkpt lat="49.47136" lon="-1.34557">
        <ele>24</ele>
        <time>2017-10-15T11:34:35+02:00</time>
      </trkpt>
      <trkpt lat="49.47125" lon="-1.34624">
        <ele>22</ele>
        <time>2017-10-15T11:35:17+02:00</time>
      </trkpt>
      <trkpt lat="49.47112" lon="-1.34723">
        <ele>20</ele>
        <time>2021-05-09T10:09:52+02:00</time>
      </trkpt>
      <trkpt lat="49.47078" lon="-1.34797">
        <ele>19</ele>
        <time>2017-10-15T11:36:45+02:00</time>
      </trkpt>
      <trkpt lat="49.47051" lon="-1.34818">
        <ele>19</ele>
        <time>2017-10-15T11:37:05+02:00</time>
      </trkpt>
      <trkpt lat="49.46992" lon="-1.34858">
        <ele>19</ele>
        <time>2021-05-09T10:10:07+02:00</time>
      </trkpt>
      <trkpt lat="49.46953" lon="-1.34877">
        <ele>18</ele>
        <time>2021-05-09T10:10:12+02:00</time>
      </trkpt>
      <trkpt lat="49.46917" lon="-1.34905">
        <ele>16</ele>
        <time>2017-10-15T11:37:25+02:00</time>
      </trkpt>
    </trkseg>
  </trk>
</gpx>